createdAt,value
2022-08-24T00:01:36.085Z,42.07
2022-08-24T00:04:02.878Z,41.96
2022-08-24T00:06:30.442Z,42.07
2022-08-24T00:08:58.723Z,42.60
2022-08-24T00:11:25.910Z,41.68
2022-08-24T00:13:52.735Z,42.05
2022-08-24T00:16:19.735Z,41.88
2022-08-24T00:18:48.059Z,42.32
2022-08-24T00:21:15.413Z,42.56
2022-08-24T00:23:41.989Z,42.27
2022-08-24T00:26:09.040Z,42.27
2022-08-24T00:28:35.661Z,43.16
2022-08-24T00:31:02.450Z,42.94
2022-08-24T00:33:29.363Z,42.50
2022-08-24T00:35:57.578Z,42.74
2022-08-24T00:38:24.051Z,43.61
2022-08-24T00:40:54.869Z,43.41
2022-08-24T00:43:24.037Z,43.86
2022-08-24T00:46:21.555Z,44.08
2022-08-24T00:48:51.698Z,43.85
2022-08-24T00:51:23.009Z,43.98
2022-08-24T00:53:56.072Z,43.31
2022-08-24T00:56:31.091Z,43.62
2022-08-24T00:59:02.142Z,44.35
2022-08-24T01:01:31.324Z,44.05
2022-08-24T01:03:59.461Z,44.14
2022-08-24T01:06:26.495Z,43.94
2022-08-24T01:08:56.549Z,44.15
2022-08-24T01:11:26.321Z,44.54
2022-08-24T01:13:53.939Z,44.84
2022-08-24T01:16:40.284Z,45.04
2022-08-24T01:19:39.469Z,45.83
2022-08-24T01:22:44.384Z,46.32
2022-08-24T01:25:11.008Z,46.91
2022-08-24T01:27:39.703Z,46.41
2022-08-24T01:30:10.585Z,46.52
2022-08-24T01:32:39.273Z,46.66
2022-08-24T01:35:06.526Z,46.86
2022-08-24T01:37:33.460Z,47.30
2022-08-24T01:40:06.635Z,46.93
2022-08-24T01:42:34.889Z,47.26
2022-08-24T01:45:02.511Z,47.38
2022-08-24T01:47:29.187Z,47.68
2022-08-24T01:49:55.690Z,47.64
2022-08-24T01:52:25.164Z,48.22
2022-08-24T01:54:52.355Z,48.32
2022-08-24T01:57:19.486Z,49.06
2022-08-24T01:59:46.094Z,48.84
2022-08-24T02:02:27.440Z,49.15
2022-08-24T02:04:54.682Z,48.99
2022-08-24T02:07:21.353Z,48.98
2022-08-24T02:09:48.186Z,49.34
2022-08-24T02:12:15.198Z,49.16
2022-08-24T02:14:41.868Z,49.04
2022-08-24T02:17:09.748Z,49.33
2022-08-24T02:19:37.456Z,49.33
2022-08-24T02:22:06.016Z,50.30
2022-08-24T02:24:33.075Z,52.19
2022-08-24T02:27:00.010Z,51.91
2022-08-24T02:29:26.485Z,50.08
2022-08-24T02:31:52.990Z,49.49
2022-08-24T02:34:19.571Z,49.25
2022-08-24T02:36:46.736Z,49.70
2022-08-24T02:39:13.237Z,49.49
2022-08-24T02:41:39.802Z,49.21
2022-08-24T02:44:06.546Z,49.32
2022-08-24T02:46:33.421Z,49.58
2022-08-24T02:49:11.419Z,49.78
2022-08-24T02:51:44.864Z,49.43
2022-08-24T02:54:13.592Z,49.49
2022-08-24T02:56:40.216Z,50.07
2022-08-24T02:59:07.233Z,50.75
2022-08-24T03:01:33.840Z,51.11
2022-08-24T03:04:00.557Z,51.54
2022-08-24T03:06:27.043Z,51.29
2022-08-24T03:08:56.558Z,51.14
2022-08-24T03:11:27.922Z,51.28
2022-08-24T03:13:58.392Z,51.09
2022-08-24T03:16:26.732Z,51.19
2022-08-24T03:18:53.510Z,51.04
2022-08-24T03:21:21.144Z,51.91
2022-08-24T03:23:47.825Z,51.66
2022-08-24T03:26:14.416Z,51.93
2022-08-24T03:28:41.457Z,51.54
2022-08-24T03:31:11.207Z,51.99
2022-08-24T03:33:37.955Z,51.52
2022-08-24T03:36:04.587Z,52.45
2022-08-24T03:38:31.095Z,52.72
2022-08-24T03:40:57.734Z,52.41
2022-08-24T03:43:42.802Z,52.82
2022-08-24T03:46:11.954Z,52.90
2022-08-24T03:48:40.504Z,53.04
2022-08-24T03:51:10.734Z,52.46
2022-08-24T03:53:37.573Z,52.28
2022-08-24T03:56:10.509Z,52.28
2022-08-24T03:58:38.293Z,52.21
2022-08-24T04:01:05.590Z,52.42
2022-08-24T04:03:36.907Z,52.15
2022-08-24T04:06:05.576Z,52.19
2022-08-24T04:08:33.034Z,52.24
2022-08-24T04:10:59.665Z,52.07
2022-08-24T04:13:26.245Z,52.20
2022-08-24T04:15:53.088Z,52.13
2022-08-24T04:18:19.997Z,52.58
2022-08-24T04:20:46.637Z,52.30
2022-08-24T04:23:13.452Z,52.35
2022-08-24T04:25:45.093Z,52.60
2022-08-24T04:28:12.620Z,52.62
2022-08-24T04:30:41.497Z,52.81
2022-08-24T04:33:09.537Z,53.10
2022-08-24T04:35:45.886Z,53.50
2022-08-24T04:38:12.709Z,53.82
2022-08-24T04:40:40.514Z,54.67
2022-08-24T04:43:07.714Z,55.43
2022-08-24T04:45:39.225Z,55.15
2022-08-24T04:48:06.032Z,56.30
2022-08-24T04:50:37.230Z,58.24
2022-08-24T04:53:05.133Z,55.64
2022-08-24T04:55:33.113Z,54.27
2022-08-24T04:57:59.596Z,54.11
2022-08-24T05:00:26.193Z,53.72
2022-08-24T05:02:52.676Z,53.59
2022-08-24T05:05:19.193Z,54.06
2022-08-24T05:07:45.699Z,53.52
2022-08-24T05:10:12.195Z,53.99
2022-08-24T05:12:38.729Z,54.90
2022-08-24T05:15:06.090Z,53.73
2022-08-24T05:17:32.596Z,53.29
2022-08-24T05:19:59.129Z,53.30
2022-08-24T05:22:27.017Z,52.41
2022-08-24T05:24:53.462Z,52.76
2022-08-24T05:27:20.131Z,52.22
2022-08-24T05:29:53.342Z,53.10
2022-08-24T05:32:19.930Z,52.15
2022-08-24T05:34:46.547Z,54.02
2022-08-24T05:37:13.037Z,53.51
2022-08-24T05:39:39.710Z,54.43
2022-08-24T05:42:06.398Z,53.16
2022-08-24T05:44:33.313Z,52.03
2022-08-24T05:47:01.117Z,52.40
2022-08-24T05:49:28.036Z,52.00
2022-08-24T05:51:55.078Z,52.75
2022-08-24T05:54:23.216Z,52.78
2022-08-24T05:56:49.733Z,51.83
2022-08-24T05:59:17.974Z,52.96
2022-08-24T06:01:45.446Z,51.45
2022-08-24T06:04:12.895Z,51.72
2022-08-24T06:06:39.894Z,50.67
2022-08-24T06:09:06.588Z,49.31
2022-08-24T06:11:38.227Z,50.61
2022-08-24T06:14:08.466Z,50.41
2022-08-24T06:16:40.770Z,50.37
2022-08-24T06:19:08.911Z,49.86
2022-08-24T06:21:35.554Z,48.97
2022-08-24T06:24:02.088Z,48.47
2022-08-24T06:26:49.103Z,48.43
2022-08-24T06:29:17.138Z,48.30
2022-08-24T06:31:49.363Z,47.21
2022-08-24T06:34:22.917Z,48.22
2022-08-24T06:36:49.401Z,46.92
2022-08-24T06:39:15.969Z,46.42
2022-08-24T06:41:43.824Z,46.73
2022-08-24T06:44:10.341Z,47.13
2022-08-24T06:46:36.986Z,45.26
2022-08-24T06:49:04.376Z,45.46
2022-08-24T06:51:32.336Z,44.78
2022-08-24T06:53:59.316Z,45.59
2022-08-24T06:56:28.754Z,45.37
2022-08-24T06:58:55.444Z,44.37
2022-08-24T07:01:25.409Z,43.35
2022-08-24T07:03:53.441Z,42.93
2022-08-24T07:06:20.745Z,42.68
2022-08-24T07:08:47.460Z,43.38
2022-08-24T07:11:15.802Z,43.74
2022-08-24T07:13:42.347Z,42.83
2022-08-24T07:16:10.125Z,43.95
2022-08-24T07:18:40.884Z,42.67
2022-08-24T07:21:08.311Z,43.02
2022-08-24T07:23:41.170Z,42.26
2022-08-24T07:26:20.983Z,41.23
2022-08-24T07:29:05.133Z,40.77
2022-08-24T07:31:35.603Z,40.54
2022-08-24T07:34:03.573Z,40.31
2022-08-24T07:36:30.469Z,39.48
2022-08-24T07:38:57.338Z,39.21
2022-08-24T07:42:02.647Z,39.57
2022-08-24T07:44:15.659Z,41.56
2022-08-24T07:46:43.137Z,39.19
2022-08-24T07:49:21.519Z,39.32
2022-08-24T07:51:54.812Z,37.24
2022-08-24T07:54:21.528Z,37.29
2022-08-24T07:56:49.200Z,38.65
2022-08-24T07:59:16.943Z,36.70
2022-08-24T08:01:43.811Z,34.90
2022-08-24T08:04:10.616Z,35.95
2022-08-24T08:06:37.423Z,35.20
2022-08-24T08:09:05.667Z,35.18
2022-08-24T08:11:32.795Z,36.32
2022-08-24T08:13:59.619Z,36.12
2022-08-24T08:16:26.377Z,35.31
2022-08-24T08:19:09.316Z,37.32
2022-08-24T08:22:01.305Z,35.70
2022-08-24T08:24:27.857Z,35.99
2022-08-24T08:26:54.587Z,36.59
2022-08-24T08:29:21.231Z,36.42
2022-08-24T08:31:47.897Z,35.92
2022-08-24T08:34:14.450Z,35.40
2022-08-24T08:36:41.689Z,35.99
2022-08-24T08:39:10.338Z,35.78
2022-08-24T08:41:56.221Z,34.93
2022-08-24T08:44:34.763Z,35.65
2022-08-24T08:47:07.434Z,35.83
2022-08-24T08:49:48.716Z,34.14
2022-08-24T08:52:33.859Z,34.96
2022-08-24T08:55:23.091Z,34.48
2022-08-24T08:58:08.465Z,35.19
2022-08-24T09:00:56.452Z,34.89
2022-08-24T09:03:43.691Z,35.12
2022-08-24T09:06:13.246Z,34.38
2022-08-24T09:08:54.281Z,34.67
2022-08-24T09:11:35.154Z,33.06
2022-08-24T09:14:47.855Z,34.07
2022-08-24T09:17:33.433Z,33.68
2022-08-24T09:20:22.240Z,32.20
2022-08-24T09:23:09.118Z,32.45
2022-08-24T09:25:51.551Z,31.92
2022-08-24T09:28:43.830Z,32.52
2022-08-24T09:31:21.927Z,31.84
2022-08-24T09:34:25.753Z,32.89
2022-08-24T09:36:54.016Z,32.81
2022-08-24T09:39:45.567Z,31.74
2022-08-24T09:42:21.753Z,31.17
2022-08-24T09:45:03.538Z,31.16
2022-08-24T09:47:48.245Z,30.98
2022-08-24T09:50:36.642Z,31.93
2022-08-24T09:53:30.605Z,31.06
2022-08-24T09:56:37.565Z,30.60
2022-08-24T09:59:20.397Z,32.56
2022-08-24T10:01:49.514Z,32.37
2022-08-24T10:04:25.244Z,31.92
2022-08-24T10:07:16.863Z,29.06
2022-08-24T10:10:04.440Z,28.10
2022-08-24T10:13:09.603Z,28.07
2022-08-24T10:16:00.872Z,28.91
2022-08-24T10:18:50.763Z,28.30
2022-08-24T10:21:44.966Z,28.46
2022-08-24T10:24:14.384Z,28.72
2022-08-24T10:26:40.840Z,27.85
2022-08-24T10:29:27.439Z,28.45
2022-08-24T10:32:22.462Z,29.14
2022-08-24T10:35:17.083Z,28.50
2022-08-24T10:38:20.352Z,29.05
2022-08-24T10:40:54.614Z,29.08
2022-08-24T10:43:40.247Z,27.81
2022-08-24T10:46:34.547Z,27.92
2022-08-24T10:49:32.279Z,27.45
2022-08-24T10:52:26.249Z,28.45
2022-08-24T10:54:52.960Z,28.25
2022-08-24T10:57:45.294Z,28.80
2022-08-24T11:00:22.700Z,28.44
2022-08-24T11:03:04.892Z,29.72
2022-08-24T11:05:39.711Z,29.59
2022-08-24T11:08:07.669Z,29.91
2022-08-24T11:10:39.220Z,28.49
2022-08-24T11:13:22.453Z,28.71
2022-08-24T11:15:58.065Z,28.19
2022-08-24T11:18:25.136Z,29.55
2022-08-24T11:20:54.817Z,29.19
2022-08-24T11:23:36.783Z,29.45
2022-08-24T11:26:22.114Z,28.97
2022-08-24T11:29:01.032Z,28.59
2022-08-24T11:31:36.155Z,28.63
2022-08-24T11:34:08.102Z,29.32
2022-08-24T11:36:37.766Z,29.34
2022-08-24T11:39:29.577Z,29.49
2022-08-24T11:42:02.389Z,29.25
2022-08-24T11:44:41.111Z,28.77
2022-08-24T11:47:30.883Z,29.75
2022-08-24T11:50:03.170Z,29.67
2022-08-24T11:52:47.041Z,28.30
2022-08-24T11:55:26.368Z,29.23
2022-08-24T11:58:07.934Z,29.10
2022-08-24T12:01:04.929Z,28.27
2022-08-24T12:04:14.358Z,29.06
2022-08-24T12:06:55.590Z,27.85
2022-08-24T12:09:50.200Z,28.41
2022-08-24T12:12:33.072Z,28.03
2022-08-24T12:15:16.919Z,29.28
2022-08-24T12:18:03.094Z,29.23
2022-08-24T12:20:35.724Z,30.31
2022-08-24T12:23:11.290Z,28.52
2022-08-24T12:25:56.601Z,28.36
2022-08-24T12:28:29.460Z,29.56
2022-08-24T12:31:00.224Z,27.98
2022-08-24T12:33:32.120Z,28.91
2022-08-24T12:36:14.649Z,27.74
2022-08-24T12:38:47.410Z,28.95
2022-08-24T12:41:33.149Z,29.71
2022-08-24T12:44:12.008Z,28.00
2022-08-24T12:46:39.722Z,27.25
2022-08-24T12:49:28.054Z,29.41
2022-08-24T12:51:57.652Z,27.16
2022-08-24T12:54:33.862Z,26.21
2022-08-24T12:57:15.737Z,26.35
2022-08-24T12:59:50.146Z,27.58
2022-08-24T13:02:19.387Z,26.41
2022-08-24T13:04:48.708Z,26.20
2022-08-24T13:07:21.140Z,25.74
2022-08-24T13:09:53.552Z,27.25
2022-08-24T13:12:38.390Z,25.59
2022-08-24T13:15:23.360Z,25.92
2022-08-24T13:18:03.258Z,27.48
2022-08-24T13:20:50.092Z,26.22
2022-08-24T13:23:24.496Z,24.95
2022-08-24T13:25:53.836Z,25.79
2022-08-24T13:28:22.876Z,25.75
2022-08-24T13:31:43.429Z,25.89
2022-08-24T13:34:10.022Z,25.60
2022-08-24T13:36:49.733Z,25.94
2022-08-24T13:39:42.479Z,25.48
2022-08-24T13:42:23.847Z,26.01
2022-08-24T13:45:14.879Z,25.41
2022-08-24T13:48:07.319Z,26.86
2022-08-24T13:50:37.882Z,24.83
2022-08-24T13:53:28.795Z,25.69
2022-08-24T13:56:33.446Z,25.27
2022-08-24T13:59:09.856Z,27.39
2022-08-24T14:02:03.339Z,27.05
2022-08-24T14:04:43.444Z,24.45
2022-08-24T14:07:17.792Z,24.98
2022-08-24T14:10:22.859Z,25.12
2022-08-24T14:13:03.004Z,25.22
2022-08-24T14:16:18.548Z,27.10
2022-08-24T14:18:58.956Z,25.04
2022-08-24T14:21:47.311Z,25.04
2022-08-24T14:24:27.178Z,25.41
2022-08-24T14:27:31.656Z,25.14
2022-08-24T14:30:28.010Z,25.95
2022-08-24T14:32:57.461Z,24.97
2022-08-24T14:35:39.115Z,24.90
2022-08-24T14:38:23.841Z,24.54
2022-08-24T14:40:53.334Z,25.69
2022-08-24T14:43:30.806Z,26.02
2022-08-24T14:46:24.355Z,27.56
2022-08-24T14:49:02.097Z,25.79
2022-08-24T14:51:43.838Z,25.32
2022-08-24T14:54:40.995Z,25.62
2022-08-24T14:57:17.465Z,25.51
2022-08-24T15:00:23.101Z,24.47
2022-08-24T15:02:55.450Z,25.35
2022-08-24T15:05:25.479Z,25.25
2022-08-24T15:07:57.549Z,25.06
2022-08-24T15:10:37.011Z,24.96
2022-08-24T15:13:13.946Z,24.98
2022-08-24T15:15:52.343Z,24.98
2022-08-24T15:18:20.904Z,25.06
2022-08-24T15:21:09.706Z,25.59
2022-08-24T15:23:57.331Z,26.85
2022-08-24T15:26:49.570Z,26.77
2022-08-24T15:29:21.155Z,25.95
2022-08-24T15:32:07.760Z,25.65
2022-08-24T15:34:45.436Z,26.29
2022-08-24T15:37:24.664Z,26.07
2022-08-24T15:39:51.218Z,26.32
2022-08-24T15:42:18.154Z,26.30
2022-08-24T15:44:48.913Z,26.32
2022-08-24T15:47:22.147Z,27.10
2022-08-24T15:49:56.384Z,27.77
2022-08-24T15:53:00.971Z,27.93
2022-08-24T15:55:39.582Z,26.75
2022-08-24T15:58:31.004Z,27.31
2022-08-24T16:01:46.626Z,27.84
2022-08-24T16:04:34.798Z,28.21
2022-08-24T16:07:01.302Z,26.76
2022-08-24T16:09:27.782Z,27.34
2022-08-24T16:11:56.977Z,26.49
2022-08-24T16:14:28.486Z,28.14
2022-08-24T16:16:56.597Z,27.71
2022-08-24T16:19:33.682Z,26.08
2022-08-24T16:22:10.770Z,27.44
2022-08-24T16:24:40.227Z,26.71
2022-08-24T16:27:14.961Z,27.17
2022-08-24T16:29:41.886Z,26.92
2022-08-24T16:32:31.432Z,27.55
2022-08-24T16:35:18.041Z,27.29
2022-08-24T16:37:44.605Z,26.74
2022-08-24T16:40:11.517Z,28.13
2022-08-24T16:42:40.394Z,28.57
2022-08-24T16:45:10.084Z,27.62
2022-08-24T16:47:37.045Z,26.64
2022-08-24T16:50:05.460Z,27.74
2022-08-24T16:52:32.094Z,27.89
2022-08-24T16:55:00.472Z,27.18
2022-08-24T16:57:32.579Z,28.39
2022-08-24T16:59:59.663Z,27.71
2022-08-24T17:02:26.209Z,27.27
2022-08-24T17:04:54.589Z,27.49
2022-08-24T17:07:24.493Z,28.21
2022-08-24T17:09:51.266Z,26.91
2022-08-24T17:12:18.083Z,27.61
2022-08-24T17:14:45.140Z,27.10
2022-08-24T17:17:13.875Z,27.53
2022-08-24T17:19:43.418Z,27.55
2022-08-24T17:22:15.666Z,28.73
2022-08-24T17:24:43.180Z,29.28
2022-08-24T17:27:09.712Z,29.29
2022-08-24T17:29:36.459Z,27.90
2022-08-24T17:32:03.435Z,27.81
2022-08-24T17:34:30.034Z,27.09
2022-08-24T17:36:57.121Z,27.17
2022-08-24T17:39:24.353Z,27.09
2022-08-24T17:41:55.176Z,27.53
2022-08-24T17:44:25.848Z,27.77
2022-08-24T17:46:55.103Z,27.12
2022-08-24T17:49:21.912Z,27.12
2022-08-24T17:51:49.616Z,27.92
2022-08-24T17:54:17.005Z,27.58
2022-08-24T17:56:46.451Z,27.92
2022-08-24T17:59:20.169Z,27.83
2022-08-24T18:01:48.049Z,27.91
2022-08-24T18:04:14.993Z,28.58
2022-08-24T18:06:41.529Z,29.05
2022-08-24T18:09:13.763Z,29.09
2022-08-24T18:11:40.991Z,29.15
2022-08-24T18:14:07.462Z,29.35
2022-08-24T18:16:34.405Z,29.03
2022-08-24T18:19:01.772Z,29.68
2022-08-24T18:21:28.394Z,29.88
2022-08-24T18:23:54.914Z,30.04
2022-08-24T18:26:27.849Z,30.00
2022-08-24T18:28:57.368Z,30.05
2022-08-24T18:31:26.568Z,31.38
2022-08-24T18:33:53.825Z,30.99
2022-08-24T18:36:20.633Z,31.96
2022-08-24T18:38:47.152Z,31.42
2022-08-24T18:41:13.827Z,31.59
2022-08-24T18:43:40.504Z,31.54
2022-08-24T18:46:08.366Z,31.47
2022-08-24T18:48:34.886Z,32.38
2022-08-24T18:51:02.518Z,33.31
2022-08-24T18:53:29.400Z,32.22
2022-08-24T18:55:55.919Z,32.82
2022-08-24T18:58:22.526Z,32.67
2022-08-24T19:00:51.268Z,33.07
2022-08-24T19:03:22.389Z,34.83
2022-08-24T19:05:48.919Z,34.21
2022-08-24T19:08:15.408Z,34.33
2022-08-24T19:10:41.906Z,34.23
2022-08-24T19:13:10.844Z,34.00
2022-08-24T19:15:39.725Z,35.50
2022-08-24T19:18:07.038Z,35.48
2022-08-24T19:20:35.363Z,35.47
2022-08-24T19:23:08.813Z,35.04
2022-08-24T19:25:37.001Z,35.40
2022-08-24T19:28:04.770Z,35.02
2022-08-24T19:30:31.515Z,35.40
2022-08-24T19:33:00.132Z,36.14
2022-08-24T19:35:27.198Z,35.84
2022-08-24T19:37:53.675Z,36.00
2022-08-24T19:40:23.376Z,35.49
2022-08-24T19:42:53.502Z,36.55
2022-08-24T19:45:43.176Z,36.41
2022-08-24T19:48:10.957Z,36.71
2022-08-24T19:50:37.594Z,36.60
2022-08-24T19:53:06.141Z,36.48
2022-08-24T19:55:32.942Z,37.13
2022-08-24T19:58:29.452Z,36.96
2022-08-24T20:01:04.860Z,37.13
2022-08-24T20:03:31.472Z,37.23
2022-08-24T20:05:57.970Z,37.36
2022-08-24T20:08:24.538Z,37.88
2022-08-24T20:10:52.978Z,37.73
2022-08-24T20:13:19.860Z,39.11
2022-08-24T20:15:46.436Z,38.55
2022-08-24T20:18:15.186Z,38.85
2022-08-24T20:20:41.954Z,39.96
2022-08-24T20:23:08.446Z,39.35
2022-08-24T20:25:36.779Z,40.69
2022-08-24T20:28:28.264Z,40.43
2022-08-24T20:30:52.715Z,39.70
2022-08-24T20:33:23.653Z,39.87
2022-08-24T20:35:50.690Z,40.16
2022-08-24T20:38:19.928Z,39.42
2022-08-24T20:40:47.580Z,39.74
2022-08-24T20:43:14.578Z,41.11
2022-08-24T20:45:42.753Z,41.97
2022-08-24T20:48:13.946Z,43.02
2022-08-24T20:50:43.441Z,42.34
2022-08-24T20:53:11.502Z,41.09
2022-08-24T20:55:39.474Z,41.69
2022-08-24T20:58:06.173Z,42.74
2022-08-24T21:00:33.605Z,44.70
2022-08-24T21:03:00.429Z,45.26
2022-08-24T21:05:26.945Z,44.81
2022-08-24T21:07:57.087Z,43.82
2022-08-24T21:10:26.813Z,44.86
2022-08-24T21:12:54.395Z,43.45
2022-08-24T21:15:23.100Z,43.67
2022-08-24T21:17:50.242Z,44.43
2022-08-24T21:20:16.950Z,44.47
2022-08-24T21:22:45.685Z,42.86
2022-08-24T21:25:14.338Z,42.30
2022-08-24T21:27:43.942Z,42.91
2022-08-24T21:30:13.688Z,42.41
2022-08-24T21:32:58.750Z,42.75
2022-08-24T21:35:25.424Z,42.42
2022-08-24T21:37:52.746Z,42.98
2022-08-24T21:40:21.844Z,44.34
2022-08-24T21:42:48.764Z,44.22
2022-08-24T21:45:18.335Z,43.70
2022-08-24T21:47:44.942Z,44.69
2022-08-24T21:50:12.432Z,43.81
2022-08-24T21:52:38.936Z,44.02
2022-08-24T21:55:09.652Z,43.99
2022-08-24T21:57:39.907Z,46.87
2022-08-24T22:00:10.967Z,47.72
2022-08-24T22:02:38.913Z,46.66
2022-08-24T22:05:06.113Z,46.35
2022-08-24T22:07:32.739Z,45.23
2022-08-24T22:09:59.325Z,46.39
2022-08-24T22:12:25.887Z,46.34
2022-08-24T22:14:52.435Z,46.64
2022-08-24T22:17:18.920Z,45.51
2022-08-24T22:19:45.484Z,45.45
2022-08-24T22:22:12.292Z,45.69
2022-08-24T22:24:38.786Z,47.37
2022-08-24T22:27:05.411Z,46.51
2022-08-24T22:29:33.484Z,47.71
2022-08-24T22:31:59.874Z,47.33
2022-08-24T22:34:26.472Z,47.92
2022-08-24T22:36:53.764Z,47.61
2022-08-24T22:39:20.321Z,47.15
2022-08-24T22:41:46.823Z,46.87
2022-08-24T22:44:19.138Z,47.18
2022-08-24T22:46:50.483Z,46.76
2022-08-24T22:49:18.624Z,46.97
2022-08-24T22:51:45.949Z,46.87
2022-08-24T22:54:13.094Z,46.87
2022-08-24T22:56:43.245Z,47.38
2022-08-24T22:59:16.003Z,47.69
2022-08-24T23:01:44.446Z,47.21
2022-08-24T23:04:15.498Z,47.20
2022-08-24T23:06:42.244Z,47.59
2022-08-24T23:09:09.403Z,48.76
2022-08-24T23:11:36.251Z,48.60
2022-08-24T23:14:04.668Z,48.42
2022-08-24T23:16:34.454Z,49.79
2022-08-24T23:19:19.937Z,50.89
2022-08-24T23:21:46.538Z,49.39
2022-08-24T23:24:13.373Z,49.33
2022-08-24T23:26:40.934Z,49.98
2022-08-24T23:29:09.585Z,49.37
2022-08-24T23:31:36.746Z,49.90
2022-08-24T23:34:04.002Z,49.55
2022-08-24T23:36:30.920Z,49.48
2022-08-24T23:38:58.760Z,50.58
2022-08-24T23:41:29.514Z,51.95
2022-08-24T23:43:56.725Z,50.93
2022-08-24T23:46:23.245Z,50.98
2022-08-24T23:48:55.075Z,50.42
2022-08-24T23:51:22.523Z,51.15
2022-08-24T23:53:49.945Z,50.59
2022-08-24T23:56:25.380Z,52.14
2022-08-24T23:58:53.049Z,53.10
